Estación de San Felipe
Ultimos registro cada 15 minutos 67
| N° | Estación | Fecha / Hora | Temperatura | Humedad | Lluvia | Velocidad | Dirección | Radiación | Presion |
| 67 | San Felipe | 02-05-2026 16:30 | 32,2 | 21,6 | 0 | 0 | 329 | 210,6 | 936,7 |
| 66 | San Felipe | 02-05-2026 16:15 | 31,8 | 23,3 | 0 | 0 | 314 | 248,1 | 936,8 |
| 65 | San Felipe | 02-05-2026 16:00 | 33,2 | 21,6 | 0 | 0 | 295 | 284,4 | 936,5 |
| 64 | San Felipe | 02-05-2026 15:45 | 32,2 | 22,2 | 0 | 0,5 | 227 | 319,4 | 936,7 |
| 63 | San Felipe | 02-05-2026 15:30 | 32,4 | 23,3 | 0 | 0 | 241 | 353,1 | 936,5 |
| 62 | San Felipe | 02-05-2026 15:15 | 33,5 | 21,9 | 0 | 0 | 316 | 385,6 | 936,4 |
| 61 | San Felipe | 02-05-2026 15:00 | 32,5 | 24 | 0 | 0 | 316 | 415,6 | 936,4 |
| 60 | San Felipe | 02-05-2026 14:45 | 33,8 | 21,8 | 0 | 0 | 260 | 444,4 | 936,4 |
| 59 | San Felipe | 02-05-2026 14:30 | 33,5 | 23,4 | 0 | 0 | 208 | 468,1 | 936,5 |
| 58 | San Felipe | 02-05-2026 14:15 | 31,5 | 22,8 | 0 | 0 | 354 | 489,4 | 936,5 |
| 57 | San Felipe | 02-05-2026 14:00 | 31 | 25,7 | 0 | 0 | 326 | 508,1 | 936,6 |
| 56 | San Felipe | 02-05-2026 13:45 | 30,6 | 26,7 | 0 | 0 | 331 | 34,4 | 936,9 |
| 55 | San Felipe | 02-05-2026 13:30 | 29,9 | 23,4 | 0 | 0 | 319 | 35,6 | 936,9 |
| 54 | San Felipe | 02-05-2026 13:15 | 30,6 | 24,1 | 0 | 0 | 333 | 335,6 | 937 |
| 53 | San Felipe | 02-05-2026 13:00 | 29,9 | 23,3 | 0 | 0 | 286 | 563,1 | 937,3 |
| 52 | San Felipe | 02-05-2026 12:45 | 30,7 | 22,1 | 0 | 0 | 272 | 568,1 | 937,6 |
| 51 | San Felipe | 02-05-2026 12:30 | 29,5 | 23,1 | 0 | 0 | 271 | 570,6 | 937,7 |
| 50 | San Felipe | 02-05-2026 12:15 | 28,5 | 30,2 | 0 | 0 | 275 | 564,4 | 937,9 |
| 49 | San Felipe | 02-05-2026 12:00 | 27,7 | 30,4 | 0 | 0 | 306 | 554,4 | 937,9 |
| 48 | San Felipe | 02-05-2026 11:45 | 27,2 | 33,5 | 0 | 0 | 306 | 543,1 | 938,3 |
| 47 | San Felipe | 02-05-2026 11:30 | 26,2 | 37,4 | 0 | 0 | 354 | 526,9 | 938,5 |
| 46 | San Felipe | 02-05-2026 11:15 | 25,3 | 41 | 0 | 0 | 28 | 509,4 | 938,6 |
| 45 | San Felipe | 02-05-2026 11:00 | 24,1 | 44,8 | 0 | 0 | 24 | 485,6 | 938,8 |
| 44 | San Felipe | 02-05-2026 10:45 | 22,7 | 46,8 | 0 | 0 | 22 | 460,6 | 939,2 |
| 43 | San Felipe | 02-05-2026 10:30 | 20,9 | 50,7 | 0 | 0 | 22 | 433,1 | 939,3 |
| 42 | San Felipe | 02-05-2026 10:15 | 18,7 | 54,1 | 0 | 0 | 13 | 224,4 | 939,4 |
| 41 | San Felipe | 02-05-2026 10:00 | 18 | 57,7 | 0 | 0 | 10 | 84,4 | 939,6 |
| 40 | San Felipe | 02-05-2026 09:45 | 18,2 | 61,2 | 0 | 0 | 8 | 266,9 | 939,8 |
| 39 | San Felipe | 02-05-2026 09:30 | 15,4 | 67,3 | 0 | 0 | 8 | 88,1 | 939,8 |
| 38 | San Felipe | 02-05-2026 09:15 | 13,9 | 71,1 | 0 | 0 | 8 | 39,4 | 939,9 |
| 37 | San Felipe | 02-05-2026 09:00 | 15 | 68,4 | 0 | 0 | 8 | 160,6 | 939,9 |
| 36 | San Felipe | 02-05-2026 08:45 | 11,9 | 78,5 | 0 | 0 | 4 | 196,9 | 940 |
| 35 | San Felipe | 02-05-2026 08:30 | 11,3 | 84,9 | 0 | 0 | 4 | 159,4 | 940,1 |
| 34 | San Felipe | 02-05-2026 08:15 | 7,6 | 92,3 | 0 | 0 | 4 | 26,9 | 939,9 |
| 33 | San Felipe | 02-05-2026 08:00 | 5,1 | 93,9 | 0 | 0 | 4 | 30,6 | 939,9 |
| 32 | San Felipe | 02-05-2026 07:45 | 4,4 | 93,6 | 0 | 0 | 4 | 5,6 | 939,9 |
| 31 | San Felipe | 02-05-2026 07:30 | 4,3 | 93,4 | 0 | 0 | 4 | 4,4 | 939,8 |
| 30 | San Felipe | 02-05-2026 07:15 | 4,4 | 93,2 | 0 | 0 | 4 | 1,9 | 939,8 |
| 29 | San Felipe | 02-05-2026 07:00 | 5,1 | 93,4 | 0 | 0 | 4 | 0,6 | 939,7 |
| 28 | San Felipe | 02-05-2026 06:45 | 5,2 | 93,2 | 0 | 0 | 4 | 0,6 | 939,6 |
| 27 | San Felipe | 02-05-2026 06:30 | 5,1 | 93,9 | 0 | 0 | 4 | 0,6 | 939,8 |
| 26 | San Felipe | 02-05-2026 06:15 | 4,8 | 94,1 | 0 | 0 | 4 | 0,6 | 939,8 |
| 25 | San Felipe | 02-05-2026 06:00 | 4,9 | 94,1 | 0 | 0 | 4 | 0,6 | 939,8 |
| 24 | San Felipe | 02-05-2026 05:45 | 5,2 | 94,7 | 0 | 0 | 4 | 0,6 | 939,8 |
| 23 | San Felipe | 02-05-2026 05:30 | 4,8 | 94,5 | 0 | 0 | 4 | 0,6 | 940 |
| 22 | San Felipe | 02-05-2026 05:15 | 5,4 | 94,7 | 0 | 0 | 4 | 0,6 | 940,2 |
| 21 | San Felipe | 02-05-2026 05:00 | 5,1 | 94,6 | 0 | 0 | 4 | 0,6 | 940,2 |
| 20 | San Felipe | 02-05-2026 04:45 | 4,9 | 94,3 | 0 | 0 | 3 | 0,6 | 940,4 |
| 19 | San Felipe | 02-05-2026 04:30 | 5,1 | 94 | 0 | 0 | 3 | 0,6 | 940,4 |
| 18 | San Felipe | 02-05-2026 04:15 | 5,2 | 94 | 0 | 0 | 3 | 0,6 | 940,4 |
| 17 | San Felipe | 02-05-2026 04:00 | 5,3 | 93,4 | 0 | 0 | 3 | 0,6 | 940,6 |
| 16 | San Felipe | 02-05-2026 03:45 | 5,7 | 93,1 | 0 | 0 | 3 | 0,6 | 940,7 |
| 15 | San Felipe | 02-05-2026 03:30 | 6,2 | 93,2 | 0 | 0 | 3 | 0,6 | 940,6 |
| 14 | San Felipe | 02-05-2026 03:15 | 5,9 | 93,1 | 0 | 0 | 3 | 0,6 | 940,7 |
| 13 | San Felipe | 02-05-2026 03:00 | 6,1 | 93 | 0 | 0 | 3 | 0,6 | 940,9 |
| 12 | San Felipe | 02-05-2026 02:45 | 6,3 | 92,7 | 0 | 0 | 3 | 0,6 | 940,9 |
| 11 | San Felipe | 02-05-2026 02:30 | 6,4 | 92,7 | 0 | 0 | 3 | 0,6 | 941 |
| 10 | San Felipe | 02-05-2026 02:15 | 6,4 | 92,5 | 0 | 0 | 3 | 0,6 | 941,2 |
| 9 | San Felipe | 02-05-2026 02:00 | 6,7 | 92,3 | 0 | 0 | 3 | 0,6 | 941,2 |
| 8 | San Felipe | 02-05-2026 01:45 | 6,6 | 91,6 | 0 | 0 | 3 | 0,6 | 941,4 |
| 7 | San Felipe | 02-05-2026 01:30 | 7,2 | 91,3 | 0 | 0 | 3 | 0,6 | 941,4 |
| 6 | San Felipe | 02-05-2026 01:15 | 7,6 | 91,2 | 0 | 0 | 3 | 0,6 | 941,6 |
| 5 | San Felipe | 02-05-2026 01:00 | 7,4 | 91,7 | 0 | 0 | 3 | 0,6 | 941,7 |
| 4 | San Felipe | 02-05-2026 00:45 | 7,9 | 91,6 | 0 | 0 | 3 | 0,6 | 941,9 |
| 3 | San Felipe | 02-05-2026 00:30 | 7,9 | 91,6 | 0 | 0 | 3 | 0,6 | 942 |
| 2 | San Felipe | 02-05-2026 00:15 | 7,6 | 91,3 | 0 | 0 | 3 | 0,6 | 942,2 |
| 1 | San Felipe | 02-05-2026 00:00 | 8 | 90,7 | 0 | 0 | 3 | 0,6 | 942,2 |